createdAt,value
2023-02-17T00:01:23.813Z,69.57
2023-02-17T00:03:53.711Z,69.22
2023-02-17T00:06:23.999Z,69.33
2023-02-17T00:08:52.470Z,69.85
2023-02-17T00:11:22.280Z,69.09
2023-02-17T00:13:50.079Z,69.38
2023-02-17T00:16:20.583Z,69.64
2023-02-17T00:18:49.272Z,70.15
2023-02-17T00:21:18.760Z,70.29
2023-02-17T00:23:48.201Z,70.24
2023-02-17T00:26:17.568Z,70.60
2023-02-17T00:28:47.775Z,70.19
2023-02-17T00:31:19.833Z,70.76
2023-02-17T00:33:47.841Z,70.31
2023-02-17T00:36:18.595Z,70.89
2023-02-17T00:38:48.916Z,70.49
2023-02-17T00:41:16.824Z,70.55
2023-02-17T00:43:46.540Z,69.68
2023-02-17T00:46:17.641Z,69.98
2023-02-17T00:48:46.418Z,70.25
2023-02-17T00:51:16.765Z,70.80
2023-02-17T00:53:44.855Z,70.84
2023-02-17T00:56:13.878Z,71.19
2023-02-17T00:58:42.423Z,70.97
2023-02-17T01:01:12.624Z,71.12
2023-02-17T01:03:42.477Z,70.87
2023-02-17T01:06:17.717Z,71.51
2023-02-17T01:08:45.549Z,71.61
2023-02-17T01:11:18.502Z,71.76
2023-02-17T01:13:46.378Z,71.83
2023-02-17T01:16:21.010Z,71.61
2023-02-17T01:18:49.739Z,71.55
2023-02-17T01:21:21.703Z,71.02
2023-02-17T01:23:50.163Z,70.83
2023-02-17T01:26:19.833Z,71.09
2023-02-17T01:28:48.512Z,71.09
2023-02-17T01:31:20.300Z,70.55
2023-02-17T01:33:50.148Z,70.90
2023-02-17T01:36:20.656Z,70.74
2023-02-17T01:38:49.182Z,70.50
2023-02-17T01:41:21.303Z,70.85
2023-02-17T01:44:14.068Z,70.72
2023-02-17T01:46:43.344Z,69.83
2023-02-17T01:49:32.535Z,69.19
2023-02-17T01:52:05.969Z,69.35
2023-02-17T01:54:39.076Z,68.48
2023-02-17T01:57:11.821Z,68.36
2023-02-17T01:59:41.365Z,69.08
2023-02-17T02:02:09.754Z,69.03
2023-02-17T02:04:42.164Z,69.45
2023-02-17T02:07:15.493Z,68.51
2023-02-17T02:09:49.783Z,69.26
2023-02-17T02:12:21.203Z,69.56
2023-02-17T02:14:50.343Z,69.87
2023-02-17T02:17:30.528Z,69.89
2023-02-17T02:20:29.558Z,69.48
2023-02-17T02:23:30.274Z,69.92
2023-02-17T02:26:19.460Z,70.40
2023-02-17T02:29:08.806Z,70.43
2023-02-17T02:31:47.296Z,70.64
2023-02-17T02:34:21.925Z,70.12
2023-02-17T02:36:57.708Z,70.16
2023-02-17T02:39:30.908Z,70.16
2023-02-17T02:42:03.244Z,70.37
2023-02-17T02:44:31.675Z,70.53
2023-02-17T02:47:00.827Z,70.49
2023-02-17T02:49:32.843Z,69.96
2023-02-17T02:52:11.543Z,70.12
2023-02-17T02:54:48.050Z,69.75
2023-02-17T02:57:39.191Z,70.79
2023-02-17T03:00:16.613Z,70.21
2023-02-17T03:02:52.383Z,70.27
2023-02-17T03:05:29.874Z,70.25
2023-02-17T03:08:03.223Z,70.27
2023-02-17T03:10:31.538Z,70.86
2023-02-17T03:12:59.657Z,70.06
2023-02-17T03:15:31.185Z,69.96
2023-02-17T03:18:02.220Z,70.57
2023-02-17T03:20:35.378Z,70.37
2023-02-17T03:23:05.512Z,71.04
2023-02-17T03:25:33.617Z,70.91
2023-02-17T03:28:01.634Z,70.62
2023-02-17T03:30:29.785Z,70.06
2023-02-17T03:32:57.702Z,70.47
2023-02-17T03:35:25.528Z,71.12
2023-02-17T03:37:54.773Z,70.06
2023-02-17T03:40:22.809Z,70.65
2023-02-17T03:42:50.661Z,71.03
2023-02-17T03:45:18.739Z,70.11
2023-02-17T03:47:46.600Z,70.52
2023-02-17T03:50:14.427Z,71.50
2023-02-17T03:52:42.330Z,70.73
2023-02-17T03:55:11.627Z,71.56
2023-02-17T03:57:39.409Z,71.06
2023-02-17T04:00:09.390Z,71.66
2023-02-17T04:02:44.293Z,71.97
2023-02-17T04:05:12.918Z,72.49
2023-02-17T04:07:41.264Z,72.56
2023-02-17T04:10:11.488Z,72.08
2023-02-17T04:12:39.334Z,72.53
2023-02-17T04:15:07.914Z,72.42
2023-02-17T04:17:37.658Z,72.10
2023-02-17T04:20:08.795Z,72.14
2023-02-17T04:22:36.748Z,72.81
2023-02-17T04:25:05.056Z,73.15
2023-02-17T04:27:34.271Z,72.49
2023-02-17T04:30:04.637Z,73.05
2023-02-17T04:32:32.531Z,72.70
2023-02-17T04:35:00.435Z,73.24
2023-02-17T04:37:28.354Z,73.09
2023-02-17T04:39:57.056Z,73.46
2023-02-17T04:42:25.030Z,73.64
2023-02-17T04:44:54.262Z,74.61
2023-02-17T04:47:22.949Z,74.59
2023-02-17T04:49:50.817Z,74.74
2023-02-17T04:52:18.672Z,74.49
2023-02-17T04:54:46.519Z,74.43
2023-02-17T04:57:14.470Z,74.62
2023-02-17T04:59:42.406Z,74.15
2023-02-17T05:02:11.616Z,74.87
2023-02-17T05:04:39.557Z,74.25
2023-02-17T05:07:07.447Z,74.16
2023-02-17T05:09:35.299Z,74.30
2023-02-17T05:12:05.573Z,75.11
2023-02-17T05:14:33.418Z,74.78
2023-02-17T05:17:01.307Z,75.91
2023-02-17T05:19:30.576Z,75.26
2023-02-17T05:21:58.444Z,75.85
2023-02-17T05:24:26.315Z,76.09
2023-02-17T05:26:54.653Z,76.54
2023-02-17T05:29:23.335Z,77.65
2023-02-17T05:31:51.288Z,77.51
2023-02-17T05:34:19.159Z,77.78
2023-02-17T05:36:48.407Z,77.95
2023-02-17T05:39:16.479Z,77.86
2023-02-17T05:41:44.296Z,78.28
2023-02-17T05:44:12.168Z,78.73
2023-02-17T05:46:40.211Z,79.44
2023-02-17T05:49:08.619Z,78.98
2023-02-17T05:51:36.514Z,79.81
2023-02-17T05:54:06.128Z,79.55
2023-02-17T05:56:34.323Z,79.82
2023-02-17T05:59:02.202Z,79.97
2023-02-17T06:01:30.531Z,80.76
2023-02-17T06:03:58.723Z,81.06
2023-02-17T06:06:26.751Z,80.94
2023-02-17T06:08:54.602Z,81.15
2023-02-17T06:11:24.552Z,81.53
2023-02-17T06:13:52.358Z,80.99
2023-02-17T06:16:20.750Z,81.59
2023-02-17T06:18:48.720Z,81.62
2023-02-17T06:21:16.608Z,81.52
2023-02-17T06:23:44.497Z,81.80
2023-02-17T06:26:12.360Z,81.10
2023-02-17T06:28:41.581Z,81.31
2023-02-17T06:31:09.734Z,81.52
2023-02-17T06:33:37.882Z,81.87
2023-02-17T06:36:06.869Z,81.12
2023-02-17T06:38:34.982Z,81.14
2023-02-17T06:41:03.076Z,81.65
2023-02-17T06:43:31.124Z,81.66
2023-02-17T06:46:00.438Z,81.20
2023-02-17T06:48:28.500Z,81.58
2023-02-17T06:50:56.417Z,81.60
2023-02-17T06:53:24.480Z,81.95
2023-02-17T06:55:52.956Z,81.60
2023-02-17T06:58:21.190Z,81.76
2023-02-17T07:00:49.153Z,81.39
2023-02-17T07:03:18.505Z,81.81
2023-02-17T07:05:46.443Z,81.72
2023-02-17T07:08:14.566Z,82.01
2023-02-17T07:10:42.615Z,81.46
2023-02-17T07:13:10.544Z,82.40
2023-02-17T07:15:38.482Z,82.42
2023-02-17T07:18:06.757Z,82.65
2023-02-17T07:20:38.192Z,83.08
2023-02-17T07:23:07.164Z,83.02
2023-02-17T07:25:35.089Z,82.48
2023-02-17T07:28:03.051Z,83.02
2023-02-17T07:30:31.237Z,82.94
2023-02-17T07:32:59.526Z,83.89
2023-02-17T07:35:27.832Z,83.13
2023-02-17T07:37:59.659Z,84.04
2023-02-17T07:40:28.907Z,83.87
2023-02-17T07:42:58.391Z,84.29
2023-02-17T07:45:26.588Z,84.33
2023-02-17T07:47:54.856Z,84.04
2023-02-17T07:50:23.486Z,84.12
2023-02-17T07:52:52.092Z,84.63
2023-02-17T07:55:21.349Z,84.85
2023-02-17T07:57:49.266Z,84.43
2023-02-17T08:00:18.435Z,84.41
2023-02-17T08:02:46.331Z,85.28
2023-02-17T08:05:14.261Z,85.49
2023-02-17T08:07:42.234Z,84.95
2023-02-17T08:10:31.087Z,86.67
2023-02-17T08:13:18.010Z,85.85
2023-02-17T08:15:45.847Z,85.49
2023-02-17T08:18:14.158Z,85.05
2023-02-17T08:20:42.046Z,85.59
2023-02-17T08:23:10.012Z,85.87
2023-02-17T08:25:38.428Z,85.22
2023-02-17T08:28:08.302Z,85.99
2023-02-17T08:30:38.786Z,85.78
2023-02-17T08:33:06.922Z,85.97
2023-02-17T08:35:34.803Z,85.92
2023-02-17T08:38:02.724Z,85.82
2023-02-17T08:40:30.700Z,85.90
2023-02-17T08:42:58.534Z,86.00
2023-02-17T08:45:27.817Z,86.21
2023-02-17T08:47:56.062Z,85.74
2023-02-17T08:50:24.087Z,86.28
2023-02-17T08:52:52.104Z,86.16
2023-02-17T08:55:22.911Z,86.29
2023-02-17T08:57:50.915Z,86.62
2023-02-17T09:00:19.632Z,86.37
2023-02-17T09:02:48.931Z,86.73
2023-02-17T09:05:16.777Z,87.08
2023-02-17T09:07:44.844Z,86.65
2023-02-17T09:10:13.956Z,87.17
2023-02-17T09:12:42.224Z,86.91
2023-02-17T09:15:10.706Z,87.00
2023-02-17T09:17:41.050Z,87.29
2023-02-17T09:20:24.095Z,87.13
2023-02-17T09:22:52.921Z,86.87
2023-02-17T09:25:20.966Z,86.80
2023-02-17T09:27:48.867Z,86.66
2023-02-17T09:30:16.920Z,86.60
2023-02-17T09:32:45.352Z,86.80
2023-02-17T09:35:16.106Z,86.37
2023-02-17T09:37:44.388Z,86.90
2023-02-17T09:40:18.635Z,86.54
2023-02-17T09:42:46.851Z,86.59
2023-02-17T09:45:20.426Z,86.48
2023-02-17T09:47:50.886Z,86.28
2023-02-17T09:50:24.830Z,86.32
2023-02-17T09:52:58.159Z,86.41
2023-02-17T09:55:30.072Z,86.13
2023-02-17T09:58:00.955Z,85.87
2023-02-17T10:00:33.758Z,85.76
2023-02-17T10:03:08.475Z,85.06
2023-02-17T10:05:44.644Z,85.25
2023-02-17T10:08:18.475Z,84.51
2023-02-17T10:10:51.879Z,84.20
2023-02-17T10:13:23.121Z,84.12
2023-02-17T10:15:53.625Z,83.38
2023-02-17T10:18:27.556Z,83.74
2023-02-17T10:21:04.877Z,83.65
2023-02-17T10:23:32.920Z,83.71
2023-02-17T10:26:19.693Z,83.48
2023-02-17T10:28:53.331Z,83.14
2023-02-17T10:31:39.197Z,83.05
2023-02-17T10:34:14.805Z,82.97
2023-02-17T10:36:52.938Z,82.50
2023-02-17T10:39:36.493Z,82.59
2023-02-17T10:42:05.999Z,82.02
2023-02-17T10:44:37.897Z,82.23
2023-02-17T10:47:06.777Z,81.92
2023-02-17T10:49:39.529Z,81.76
2023-02-17T10:52:15.654Z,81.88
2023-02-17T10:54:48.056Z,81.73
2023-02-17T10:57:18.254Z,81.69
2023-02-17T10:59:48.196Z,81.43
2023-02-17T11:02:20.318Z,81.45
2023-02-17T11:04:50.882Z,80.96
2023-02-17T11:07:27.350Z,81.24
2023-02-17T11:10:00.465Z,80.27
2023-02-17T11:12:30.519Z,79.76
2023-02-17T11:14:58.877Z,79.89
2023-02-17T11:17:30.542Z,80.37
2023-02-17T11:20:03.992Z,79.77
2023-02-17T11:22:37.062Z,79.90
2023-02-17T11:25:08.851Z,79.54
2023-02-17T11:27:36.887Z,80.04
2023-02-17T11:30:10.938Z,79.66
2023-02-17T11:32:39.334Z,79.58
2023-02-17T11:35:23.587Z,79.74
2023-02-17T11:37:56.350Z,80.10
2023-02-17T11:40:27.025Z,80.11
2023-02-17T11:42:59.813Z,80.27
2023-02-17T11:45:33.514Z,80.17
2023-02-17T11:48:24.572Z,79.84
2023-02-17T11:50:58.876Z,80.38
2023-02-17T11:53:47.982Z,80.43
2023-02-17T11:56:19.591Z,80.78
2023-02-17T11:59:03.490Z,81.11
2023-02-17T12:01:49.563Z,80.84
2023-02-17T12:04:27.477Z,80.69
2023-02-17T12:07:21.355Z,80.69
2023-02-17T12:10:01.756Z,80.86
2023-02-17T12:12:44.893Z,80.76
2023-02-17T12:15:28.441Z,80.58
2023-02-17T12:18:09.666Z,80.69
2023-02-17T12:20:49.793Z,80.59
2023-02-17T12:23:49.935Z,80.58
2023-02-17T12:26:32.646Z,81.13
2023-02-17T12:29:13.537Z,80.58
2023-02-17T12:31:57.534Z,81.13
2023-02-17T12:34:32.845Z,80.82
2023-02-17T12:37:02.022Z,80.99
2023-02-17T12:39:34.529Z,80.53
2023-02-17T12:42:08.541Z,81.15
2023-02-17T12:44:41.229Z,80.75
2023-02-17T12:47:16.014Z,80.97
2023-02-17T12:49:50.759Z,80.65
2023-02-17T12:52:20.728Z,80.91
2023-02-17T12:54:54.110Z,80.46
2023-02-17T12:57:26.085Z,80.21
2023-02-17T12:59:54.940Z,80.06
2023-02-17T13:02:24.214Z,80.06
2023-02-17T13:04:54.428Z,79.68
2023-02-17T13:07:42.670Z,80.08
2023-02-17T13:10:23.031Z,80.03
2023-02-17T13:13:01.764Z,80.19
2023-02-17T13:15:33.711Z,80.46
2023-02-17T13:18:03.500Z,80.45
2023-02-17T13:20:56.129Z,80.59
2023-02-17T13:23:39.197Z,80.74
2023-02-17T13:26:24.508Z,80.97
2023-02-17T13:28:55.871Z,80.96
2023-02-17T13:31:25.812Z,80.66
2023-02-17T13:33:55.726Z,80.86
2023-02-17T13:36:36.669Z,80.75
2023-02-17T13:39:08.584Z,80.98
2023-02-17T13:41:46.868Z,80.76
2023-02-17T13:44:31.712Z,81.25
2023-02-17T13:47:02.076Z,81.09
2023-02-17T13:49:33.978Z,81.29
2023-02-17T13:52:10.516Z,81.21
2023-02-17T13:54:38.438Z,81.48
2023-02-17T13:57:06.418Z,81.14
2023-02-17T13:59:38.114Z,81.29
2023-02-17T14:02:35.109Z,81.34
2023-02-17T14:05:17.892Z,80.81
2023-02-17T14:08:01.067Z,81.08
2023-02-17T14:10:29.213Z,81.36
2023-02-17T14:12:57.936Z,81.44
2023-02-17T14:15:29.213Z,81.14
2023-02-17T14:17:58.029Z,81.03
2023-02-17T14:20:31.903Z,80.66
2023-02-17T14:23:05.768Z,80.61
2023-02-17T14:25:35.861Z,80.66
2023-02-17T14:28:05.009Z,80.16
2023-02-17T14:30:36.702Z,80.57
2023-02-17T14:33:09.309Z,80.90
2023-02-17T14:35:39.524Z,80.43
2023-02-17T14:38:09.783Z,80.88
2023-02-17T14:40:40.024Z,80.57
2023-02-17T14:43:08.046Z,81.01
2023-02-17T14:45:37.242Z,81.24
2023-02-17T14:48:05.551Z,81.27
2023-02-17T14:50:33.878Z,81.52
2023-02-17T14:53:01.756Z,81.50
2023-02-17T14:55:35.958Z,81.65
2023-02-17T14:58:04.988Z,81.48
2023-02-17T15:00:33.023Z,81.79
2023-02-17T15:03:02.237Z,81.50
2023-02-17T15:05:30.134Z,81.43
2023-02-17T15:08:01.302Z,81.60
2023-02-17T15:10:30.387Z,81.35
2023-02-17T15:12:58.416Z,81.73
2023-02-17T15:15:26.294Z,81.21
2023-02-17T15:17:54.150Z,81.27
2023-02-17T15:20:23.368Z,81.44
2023-02-17T15:22:52.890Z,81.82
2023-02-17T15:25:23.199Z,81.44
2023-02-17T15:27:51.460Z,81.83
2023-02-17T15:30:20.232Z,81.93
2023-02-17T15:32:48.724Z,82.08
2023-02-17T15:35:18.930Z,82.13
2023-02-17T15:37:48.245Z,82.06
2023-02-17T15:40:18.174Z,82.49
2023-02-17T15:42:50.175Z,82.36
2023-02-17T15:45:20.367Z,82.28
2023-02-17T15:47:49.292Z,82.19
2023-02-17T15:50:20.644Z,82.14
2023-02-17T15:52:51.366Z,82.46
2023-02-17T15:55:20.249Z,82.68
2023-02-17T15:57:50.870Z,82.33
2023-02-17T16:00:24.464Z,82.33
2023-02-17T16:02:52.820Z,82.33
2023-02-17T16:05:23.158Z,82.63
2023-02-17T16:07:52.676Z,82.57
2023-02-17T16:10:25.048Z,82.32
2023-02-17T16:12:54.467Z,82.50
2023-02-17T16:15:24.470Z,83.01
2023-02-17T16:17:52.891Z,82.85
2023-02-17T16:20:24.320Z,82.97
2023-02-17T16:22:53.581Z,83.20
2023-02-17T16:25:23.553Z,83.38
2023-02-17T16:27:53.074Z,83.54
2023-02-17T16:30:23.975Z,83.30
2023-02-17T16:32:53.923Z,83.67
2023-02-17T16:35:25.593Z,83.88
2023-02-17T16:37:57.778Z,83.90
2023-02-17T16:40:28.106Z,83.85
2023-02-17T16:42:56.681Z,83.80
2023-02-17T16:45:26.198Z,84.16
2023-02-17T16:47:55.886Z,84.21
2023-02-17T16:50:26.573Z,84.44
2023-02-17T16:52:57.693Z,84.38
2023-02-17T16:55:29.161Z,84.78
2023-02-17T16:57:57.373Z,84.47
2023-02-17T17:00:29.682Z,84.67
2023-02-17T17:02:58.431Z,84.62
2023-02-17T17:05:29.006Z,84.76
2023-02-17T17:07:58.414Z,84.69
2023-02-17T17:10:29.155Z,84.93
2023-02-17T17:12:57.801Z,84.98
2023-02-17T17:15:25.906Z,85.30
2023-02-17T17:17:58.055Z,85.26
2023-02-17T17:20:31.014Z,85.31
2023-02-17T17:23:01.169Z,85.33
2023-02-17T17:25:29.789Z,85.77
2023-02-17T17:27:58.577Z,85.92
2023-02-17T17:30:29.569Z,85.74
2023-02-17T17:32:57.444Z,85.99
2023-02-17T17:35:25.519Z,86.25
2023-02-17T17:37:53.342Z,86.28
2023-02-17T17:40:24.319Z,86.50
2023-02-17T17:42:52.678Z,86.70
2023-02-17T17:45:20.859Z,86.62
2023-02-17T17:47:48.828Z,87.05
2023-02-17T17:50:18.911Z,86.82
2023-02-17T17:52:47.612Z,87.14
2023-02-17T17:55:16.462Z,87.24
2023-02-17T17:57:45.744Z,87.53
2023-02-17T18:00:16.746Z,87.31
2023-02-17T18:02:44.632Z,87.40
2023-02-17T18:05:13.033Z,87.74
2023-02-17T18:07:42.301Z,87.61
2023-02-17T18:10:13.870Z,88.02
2023-02-17T18:12:43.128Z,87.92
2023-02-17T18:15:13.113Z,88.23
2023-02-17T18:17:43.024Z,88.20
2023-02-17T18:20:12.539Z,88.18
2023-02-17T18:22:40.821Z,88.27
2023-02-17T18:25:09.308Z,88.63
2023-02-17T18:27:42.771Z,88.44
2023-02-17T18:30:19.123Z,88.41
2023-02-17T18:32:47.636Z,88.40
2023-02-17T18:35:15.896Z,88.18
2023-02-17T18:37:45.045Z,88.51
2023-02-17T18:40:15.939Z,88.44
2023-02-17T18:42:45.465Z,88.49
2023-02-17T18:45:16.436Z,88.90
2023-02-17T18:47:45.496Z,89.06
2023-02-17T18:50:15.000Z,88.87
2023-02-17T18:52:44.215Z,88.72
2023-02-17T18:55:12.687Z,89.07
2023-02-17T18:57:40.906Z,89.02
2023-02-17T19:00:10.787Z,89.04
2023-02-17T19:02:41.349Z,89.17
2023-02-17T19:05:12.458Z,89.10
2023-02-17T19:07:40.412Z,89.15
2023-02-17T19:10:09.699Z,88.91
2023-02-17T19:12:37.965Z,88.98
2023-02-17T19:15:06.222Z,89.11
2023-02-17T19:17:34.212Z,89.03
2023-02-17T19:20:03.683Z,89.40
2023-02-17T19:22:31.613Z,89.55
2023-02-17T19:24:59.473Z,89.61
2023-02-17T19:27:27.375Z,89.36
2023-02-17T19:29:55.328Z,90.02
2023-02-17T19:32:23.154Z,90.34
2023-02-17T19:34:51.096Z,90.47
2023-02-17T19:37:20.271Z,90.99
2023-02-17T19:39:48.085Z,90.96
2023-02-17T19:42:16.013Z,91.16
2023-02-17T19:44:43.920Z,91.47
2023-02-17T19:47:11.798Z,91.56
2023-02-17T19:49:39.689Z,91.83
2023-02-17T19:52:07.799Z,91.76
2023-02-17T19:54:38.015Z,92.07
2023-02-17T19:57:05.883Z,92.29
2023-02-17T19:59:34.475Z,92.63
2023-02-17T20:02:02.977Z,92.55
2023-02-17T20:04:31.485Z,92.94
2023-02-17T20:06:59.401Z,93.13
2023-02-17T20:09:27.312Z,93.13
2023-02-17T20:11:56.776Z,93.56
2023-02-17T20:14:24.982Z,94.10
2023-02-17T20:16:55.601Z,93.91
2023-02-17T20:19:24.077Z,93.00
2023-02-17T20:21:52.618Z,93.09
2023-02-17T20:24:20.991Z,93.39
2023-02-17T20:26:50.912Z,92.87
2023-02-17T20:29:20.448Z,92.53
2023-02-17T20:31:48.486Z,92.32
2023-02-17T20:34:28.576Z,92.12
2023-02-17T20:36:57.336Z,92.20
2023-02-17T20:39:26.313Z,91.69
2023-02-17T20:41:54.751Z,91.44
2023-02-17T20:44:27.733Z,91.44
2023-02-17T20:46:57.044Z,90.67
2023-02-17T20:49:25.694Z,90.21
2023-02-17T20:51:53.741Z,90.29
2023-02-17T20:54:21.683Z,89.98
2023-02-17T20:56:49.918Z,89.51
2023-02-17T20:59:17.798Z,89.80
2023-02-17T21:01:47.190Z,90.11
2023-02-17T21:04:15.314Z,90.26
2023-02-17T21:06:45.649Z,90.08
2023-02-17T21:09:17.028Z,90.30
2023-02-17T21:11:45.659Z,90.08
2023-02-17T21:14:14.324Z,89.83
2023-02-17T21:16:42.683Z,89.91
2023-02-17T21:19:11.872Z,89.32
2023-02-17T21:21:40.944Z,89.49
2023-02-17T21:24:08.974Z,89.35
2023-02-17T21:26:37.044Z,88.98
2023-02-17T21:29:05.274Z,89.05
2023-02-17T21:31:33.371Z,89.12
2023-02-17T21:34:01.404Z,88.60
2023-02-17T21:36:30.935Z,88.79
2023-02-17T21:38:59.118Z,88.63
2023-02-17T21:41:29.802Z,88.61
2023-02-17T21:44:15.228Z,88.71
2023-02-17T21:46:44.084Z,88.83
2023-02-17T21:49:13.045Z,88.74
2023-02-17T21:51:42.543Z,87.80
2023-02-17T21:54:11.294Z,87.22
2023-02-17T21:56:39.628Z,86.96
2023-02-17T21:59:08.079Z,86.57
2023-02-17T22:01:36.000Z,86.46
2023-02-17T22:04:04.307Z,86.33
2023-02-17T22:06:37.746Z,85.88
2023-02-17T22:09:08.889Z,85.46
2023-02-17T22:11:39.531Z,85.59
2023-02-17T22:14:10.277Z,85.97
2023-02-17T22:16:38.229Z,86.00
2023-02-17T22:19:08.169Z,86.20
2023-02-17T22:21:36.147Z,86.46
2023-02-17T22:24:04.367Z,86.61
2023-02-17T22:26:33.602Z,86.45
2023-02-17T22:29:01.578Z,86.46
2023-02-17T22:31:31.782Z,86.56
2023-02-17T22:34:01.725Z,86.22
2023-02-17T22:36:33.310Z,86.20
2023-02-17T22:39:01.830Z,86.41
2023-02-17T22:41:29.980Z,86.37
2023-02-17T22:44:00.687Z,86.38
2023-02-17T22:46:28.882Z,86.33
2023-02-17T22:48:58.004Z,86.40
2023-02-17T22:51:28.024Z,86.40
2023-02-17T22:53:55.882Z,86.12
2023-02-17T22:56:24.972Z,86.22
2023-02-17T22:58:56.476Z,86.15
2023-02-17T23:01:26.295Z,86.17
2023-02-17T23:03:54.998Z,85.90
2023-02-17T23:06:25.500Z,86.15
2023-02-17T23:08:54.038Z,86.22
2023-02-17T23:11:44.398Z,86.00
2023-02-17T23:14:13.497Z,86.24
2023-02-17T23:16:42.808Z,86.06
2023-02-17T23:19:12.477Z,86.23
2023-02-17T23:21:44.428Z,86.07
2023-02-17T23:24:12.370Z,85.86
2023-02-17T23:26:40.413Z,85.86
2023-02-17T23:29:09.561Z,85.91
2023-02-17T23:31:38.855Z,85.86
2023-02-17T23:34:08.543Z,85.94
2023-02-17T23:36:39.028Z,86.00
2023-02-17T23:39:07.169Z,85.94
2023-02-17T23:41:36.654Z,86.01
2023-02-17T23:44:06.026Z,86.14
2023-02-17T23:46:33.948Z,86.53
2023-02-17T23:49:02.028Z,86.41
2023-02-17T23:51:31.395Z,86.17
2023-02-17T23:53:59.574Z,86.12
2023-02-17T23:56:30.498Z,86.04
2023-02-17T23:58:58.790Z,86.00
